Time;durP1;ratioP1;P1;durP2;ratioP2;P2;SDS_P1;SDS_P2;PMS_P1;PMS_P2;Temp;Humidity;BMP_temperature;BMP_pressure;BME280_temperature;BME280_humidity;BME280_pressure;Samples;Min_cycle;Max_cycle;Signal;HPM_P1;HPM_P2
2023/06/14 00:02:10;;;;;;;0.93;0.30;;;;;;;23.64;46.12;101331.78;4993836;28;20179;-43
2023/06/14 00:04:39;;;;;;;1.38;0.40;;;;;;;23.39;46.62;101337.38;4993660;28;20475;-45
2023/06/14 00:07:08;;;;;;;0.47;0.20;;;;;;;23.28;47.23;101342.03;4993713;28;20073;-44
2023/06/14 00:09:35;;;;;;;1.25;0.35;;;;;;;23.31;47.12;101352.41;4993392;28;20030;-46
2023/06/14 00:12:01;;;;;;;0.43;0.30;;;;;;;23.35;46.62;101347.19;4993540;28;20046;-43
2023/06/14 00:14:28;;;;;;;0.30;0.30;;;;;;;23.35;46.53;101345.28;4993834;28;20088;-44
2023/06/14 00:16:58;;;;;;;0.63;0.40;;;;;;;23.29;46.40;101348.31;4993458;28;20037;-44
2023/06/14 00:19:25;;;;;;;0.43;0.20;;;;;;;23.08;47.98;101339.38;4993797;28;20593;-47
2023/06/14 00:21:52;;;;;;;0.30;0.30;;;;;;;22.65;47.12;101336.13;4993428;28;20105;-43
2023/06/14 00:24:19;;;;;;;0.40;0.30;;;;;;;22.84;48.88;101325.50;4993407;28;20026;-43
2023/06/14 00:26:45;;;;;;;0.90;0.43;;;;;;;22.89;47.72;101320.88;4993348;28;20034;-44
2023/06/14 00:29:12;;;;;;;0.88;0.30;;;;;;;22.74;49.08;101323.59;4993828;28;20029;-42
2023/06/14 00:31:38;;;;;;;0.70;0.50;;;;;;;21.98;50.35;101312.66;4993517;28;20023;-43
2023/06/14 00:34:04;;;;;;;1.17;0.50;;;;;;;21.54;51.32;101319.41;4993390;28;20040;-44
2023/06/14 00:36:30;;;;;;;0.65;0.63;;;;;;;21.23;52.55;101312.16;4993205;28;20193;-43
2023/06/14 00:38:57;;;;;;;0.30;0.30;;;;;;;21.61;52.37;101319.13;4993465;28;20119;-44
2023/06/14 00:41:23;;;;;;;0.30;0.30;;;;;;;21.73;51.70;101308.00;4993448;28;20089;-45
2023/06/14 00:43:49;;;;;;;0.77;0.45;;;;;;;21.55;52.72;101314.75;4993193;28;20109;-44
2023/06/14 00:46:15;;;;;;;0.50;0.50;;;;;;;21.18;52.33;101303.97;4993239;28;20049;-42
2023/06/14 00:48:42;;;;;;;1.80;0.52;;;;;;;21.12;53.42;101305.03;4993553;28;20027;-43
2023/06/14 00:51:08;;;;;;;0.77;0.40;;;;;;;21.32;52.92;101292.34;4993255;28;20027;-44
2023/06/14 00:53:35;;;;;;;0.50;0.40;;;;;;;20.78;53.41;101287.16;4993004;28;20049;-45
2023/06/14 00:56:02;;;;;;;0.77;0.32;;;;;;;20.98;53.53;101299.22;4993104;28;20030;-44
2023/06/14 00:58:28;;;;;;;0.40;0.32;;;;;;;21.07;53.37;101294.94;4993076;28;20471;-45
2023/06/14 01:00:56;;;;;;;0.40;0.40;;;;;;;21.23;52.93;101302.06;4993149;28;20038;-44
2023/06/14 01:03:22;;;;;;;0.50;0.30;;;;;;;21.43;52.72;101295.09;4993145;28;20102;-43
2023/06/14 01:06:04;;;;;;;2.55;0.60;;;;;;;21.45;52.64;101293.75;4993365;28;20105;-44
2023/06/14 01:08:57;;;;;;;1.23;0.40;;;;;;;20.39;54.18;101291.22;4993138;28;20022;-45
2023/06/14 01:11:32;;;;;;;11.77;1.13;;;;;;;20.73;54.30;101289.84;4992862;28;20033;-44
2023/06/14 01:14:03;;;;;;;0.98;0.40;;;;;;;20.83;53.00;101281.75;4993134;28;20498;-43
2023/06/14 01:16:32;;;;;;;2.03;0.38;;;;;;;21.06;53.89;101291.38;4992909;28;20022;-43
2023/06/14 01:18:58;;;;;;;2.30;0.30;;;;;;;21.03;53.10;101286.47;4993003;28;20085;-43
2023/06/14 01:21:25;;;;;;;1.13;0.40;;;;;;;20.49;54.35;101284.00;4995235;28;20121;-45
2023/06/14 01:23:52;;;;;;;3.65;0.40;;;;;;;20.25;55.05;101280.75;4996487;28;20509;-43
2023/06/14 01:26:22;;;;;;;2.17;0.50;;;;;;;20.69;54.21;101279.75;4996630;28;20041;-45
2023/06/14 01:28:52;;;;;;;7.35;1.42;;;;;;;20.46;53.63;101276.34;4996533;28;20455;-43
2023/06/14 01:31:24;;;;;;;1.83;0.40;;;;;;;20.71;54.01;101280.28;4996387;28;20026;-42
2023/06/14 01:33:52;;;;;;;0.57;0.55;;;;;;;20.60;54.17;101282.16;4996433;28;20019;-43
2023/06/14 01:36:25;;;;;;;0.70;0.30;;;;;;;20.85;53.99;101286.91;4996296;28;20041;-45
2023/06/14 01:38:53;;;;;;;0.30;0.30;;;;;;;20.98;52.22;101300.03;4996829;28;20499;-43
2023/06/14 01:41:22;;;;;;;0.73;0.30;;;;;;;20.82;52.25;101296.44;5011550;28;20027;-44
2023/06/14 01:43:52;;;;;;;1.23;0.30;;;;;;;20.97;52.34;101300.31;4996607;28;20437;-43
2023/06/14 01:46:19;;;;;;;1.52;0.57;;;;;;;20.94;53.13;101303.56;5011086;28;20030;-43
2023/06/14 01:48:46;;;;;;;0.80;0.43;;;;;;;21.25;51.85;101305.34;4996198;28;20379;-43
2023/06/14 01:51:12;;;;;;;0.68;0.40;;;;;;;21.40;52.49;101303.81;4995908;28;20023;-46
2023/06/14 01:53:38;;;;;;;1.05;0.50;;;;;;;21.41;51.89;101305.44;4995934;28;20026;-42
2023/06/14 01:56:06;;;;;;;0.30;0.22;;;;;;;21.59;50.94;101313.13;4995385;28;20030;-43
2023/06/14 01:58:35;;;;;;;0.35;0.35;;;;;;;21.48;49.64;101315.00;4995741;28;20034;-45
2023/06/14 02:01:02;;;;;;;0.30;0.30;;;;;;;21.69;49.46;101318.59;4996064;28;20055;-44
2023/06/14 02:03:28;;;;;;;0.38;0.30;;;;;;;21.39;49.76;101323.97;4994483;28;20039;-43
2023/06/14 02:05:55;;;;;;;0.60;0.30;;;;;;;21.55;49.91;101322.94;4995850;28;20042;-43
2023/06/14 02:08:22;;;;;;;1.05;0.40;;;;;;;21.33;49.90;101332.09;4996832;28;20037;-44
2023/06/14 02:10:48;;;;;;;0.98;0.47;;;;;;;21.44;50.12;101329.44;4996856;28;20026;-44
2023/06/14 02:13:15;;;;;;;0.55;0.32;;;;;;;20.68;51.80;101338.78;4996530;28;20030;-43
2023/06/14 02:15:43;;;;;;;0.30;0.30;;;;;;;21.17;50.66;101330.38;4995919;28;20038;-43
2023/06/14 02:18:11;;;;;;;0.80;0.60;;;;;;;21.13;50.92;101329.25;5010730;28;20022;-42
2023/06/14 02:20:38;;;;;;;0.40;0.40;;;;;;;21.42;50.46;101329.69;4995648;28;20061;-42
2023/06/14 02:23:05;;;;;;;0.82;0.60;;;;;;;21.00;51.64;101319.66;4994342;28;20038;-43
2023/06/14 02:25:31;;;;;;;0.73;0.50;;;;;;;20.74;52.39;101312.44;4995964;28;20065;-43
2023/06/14 02:27:58;;;;;;;1.38;0.70;;;;;;;20.47;52.74;101312.50;4995768;28;20037;-46
2023/06/14 02:30:24;;;;;;;0.77;0.50;;;;;;;21.04;52.28;101319.94;4995135;28;20106;-44
2023/06/14 02:32:51;;;;;;;1.45;0.60;;;;;;;21.11;51.70;101311.56;4995147;28;20030;-44
2023/06/14 02:35:17;;;;;;;0.93;0.40;;;;;;;21.15;51.51;101305.28;4995370;28;20034;-45
2023/06/14 02:37:44;;;;;;;0.43;0.30;;;;;;;21.08;51.50;101299.28;4994855;28;20030;-44
2023/06/14 02:40:11;;;;;;;0.93;0.60;;;;;;;20.54;52.42;101299.50;4995000;28;20050;-43
2023/06/14 02:42:37;;;;;;;1.38;0.50;;;;;;;20.15;54.40;101296.16;4995141;28;20105;-45
2023/06/14 02:45:04;;;;;;;1.48;0.65;;;;;;;20.02;54.21;101294.69;4995134;28;20030;-44
2023/06/14 02:47:31;;;;;;;1.48;0.50;;;;;;;20.19;54.10;101275.56;4995703;28;20041;-42
2023/06/14 02:49:57;;;;;;;0.65;0.52;;;;;;;20.00;54.21;101291.44;5010566;28;20035;-42
2023/06/14 02:52:25;;;;;;;0.68;0.50;;;;;;;19.54;55.76;101290.91;4994772;28;20030;-42
2023/06/14 02:54:51;;;;;;;0.70;0.50;;;;;;;19.22;56.80;101307.94;4994627;28;20109;-44
2023/06/14 02:57:18;;;;;;;1.35;0.70;;;;;;;18.67;58.55;101311.50;4994551;28;20106;-42
2023/06/14 02:59:44;;;;;;;0.85;0.70;;;;;;;18.40;59.94;101314.03;4992899;28;20030;-44
2023/06/14 03:02:10;;;;;;;0.85;0.70;;;;;;;17.85;62.52;101316.59;4994202;28;20022;-43
2023/06/14 03:04:40;;;;;;;1.10;0.73;;;;;;;17.69;63.46;101307.34;4994682;28;20022;-43
2023/06/14 03:07:09;;;;;;;2.13;1.00;;;;;;;17.40;65.06;101310.03;4994789;28;20034;-42
2023/06/14 03:09:37;;;;;;;3.03;1.33;;;;;;;17.56;64.64;101303.03;4994874;28;20066;-42
2023/06/14 03:12:04;;;;;;;2.40;1.42;;;;;;;17.49;64.67;101310.47;4994024;28;20391;-45
2023/06/14 03:14:31;;;;;;;3.17;1.30;;;;;;;17.54;64.89;101304.31;4994174;28;20068;-44
2023/06/14 03:16:58;;;;;;;1.83;1.25;;;;;;;17.40;65.63;101310.03;4994151;28;20037;-47
2023/06/14 03:19:27;;;;;;;1.58;1.27;;;;;;;16.85;67.54;101302.38;4994261;28;20038;-44
2023/06/14 03:21:56;;;;;;;2.25;1.10;;;;;;;17.10;66.56;101306.66;4993891;28;20046;-44
2023/06/14 03:24:27;;;;;;;3.25;1.27;;;;;;;16.77;67.35;101294.63;4994310;28;20070;-44
2023/06/14 03:26:54;;;;;;;1.73;1.20;;;;;;;16.82;67.63;101297.44;4994781;28;20121;-44
2023/06/14 03:29:20;;;;;;;3.08;2.50;;;;;;;16.46;68.83;101294.94;4994109;28;20108;-43
2023/06/14 03:32:03;;;;;;;3.63;2.30;;;;;;;16.52;68.82;101297.50;4994312;28;20116;-44
2023/06/14 03:34:30;;;;;;;4.35;2.80;;;;;;;16.06;70.25;101296.41;4993624;28;20026;-43
2023/06/14 03:36:56;;;;;;;2.60;1.77;;;;;;;16.02;70.26;101295.19;4993982;28;20057;-44
2023/06/14 03:39:23;;;;;;;2.38;1.20;;;;;;;15.88;70.93;101298.31;4993829;28;20050;-44
2023/06/14 03:41:49;;;;;;;1.10;1.00;;;;;;;15.76;71.33;101303.69;4994117;28;20034;-44
2023/06/14 03:44:18;;;;;;;3.47;2.25;;;;;;;15.37;73.07;101310.38;4993457;28;20037;-43
2023/06/14 03:46:45;;;;;;;5.07;3.50;;;;;;;15.29;73.63;101316.91;4993916;28;20395;-44
2023/06/14 03:49:12;;;;;;;2.25;1.60;;;;;;;15.39;73.33;101314.53;4994134;28;20026;-42
2023/06/14 03:51:39;;;;;;;1.70;1.17;;;;;;;15.40;73.62;101321.56;4993794;28;20455;-43
2023/06/14 03:54:08;;;;;;;2.35;1.27;;;;;;;15.43;73.17;101325.66;4993922;28;20022;-45
2023/06/14 03:56:35;;;;;;;1.15;1.00;;;;;;;15.41;73.39;101328.59;4993730;28;20088;-43
2023/06/14 03:59:02;;;;;;;1.92;1.13;;;;;;;15.23;74.25;101323.22;4993603;28;20023;-44
2023/06/14 04:01:29;;;;;;;1.48;0.90;;;;;;;15.03;75.26;101315.34;4993688;28;20110;-43
2023/06/14 04:03:57;;;;;;;2.13;1.20;;;;;;;14.96;75.63;101315.41;4994051;28;20036;-43
2023/06/14 04:06:24;;;;;;;1.85;1.10;;;;;;;15.00;75.29;101330.09;4993716;28;20072;-44
2023/06/14 04:08:52;;;;;;;1.52;1.42;;;;;;;14.94;75.73;101339.09;4993509;28;20026;-43
2023/06/14 04:11:18;;;;;;;1.75;1.10;;;;;;;14.97;75.86;101332.41;4993511;28;20027;-43
2023/06/14 04:13:45;;;;;;;1.27;0.85;;;;;;;14.79;76.28;101333.22;4993579;28;20030;-45
2023/06/14 04:16:11;;;;;;;1.48;0.98;;;;;;;14.98;75.75;101340.25;4993895;28;20109;-45
2023/06/14 04:18:37;;;;;;;1.40;0.90;;;;;;;14.91;76.04;101346.78;4993519;28;20077;-43
2023/06/14 04:21:04;;;;;;;1.40;1.02;;;;;;;14.85;75.89;101334.19;4993517;28;20046;-43
2023/06/14 04:23:30;;;;;;;1.63;1.08;;;;;;;14.86;75.98;101343.91;4993515;28;20435;-43
2023/06/14 04:26:02;;;;;;;1.80;1.10;;;;;;;14.96;75.77;101345.06;4993498;28;20053;-43
2023/06/14 04:28:28;;;;;;;1.98;1.05;;;;;;;14.94;75.77;101349.03;4993553;28;20034;-45
2023/06/14 04:30:54;;;;;;;1.42;1.00;;;;;;;14.88;75.98;101361.53;4993770;28;20026;-44
2023/06/14 04:33:20;;;;;;;1.30;1.00;;;;;;;14.99;75.88;101371.59;4993388;28;20027;-43
2023/06/14 04:35:47;;;;;;;1.63;1.17;;;;;;;15.15;74.48;101367.47;4993397;28;20030;-44
2023/06/14 04:38:15;;;;;;;1.75;0.90;;;;;;;15.11;74.03;101378.94;4993423;28;20081;-43
2023/06/14 04:40:45;;;;;;;1.67;0.90;;;;;;;15.02;74.20;101368.44;4993277;28;20054;-45
2023/06/14 04:43:12;;;;;;;1.73;1.00;;;;;;;14.94;74.73;101360.66;4993679;28;20128;-43
2023/06/14 04:45:39;;;;;;;1.52;1.00;;;;;;;14.88;74.73;101361.53;4993839;28;20053;-42
2023/06/14 04:48:06;;;;;;;0.98;0.85;;;;;;;14.90;74.66;101359.44;4993874;28;20086;-43
2023/06/14 04:50:33;;;;;;;1.70;0.90;;;;;;;14.98;74.58;101356.44;4994076;28;20026;-43
2023/06/14 04:52:59;;;;;;;1.85;1.00;;;;;;;14.85;75.12;101359.28;4993272;28;20483;-43
2023/06/14 04:55:26;;;;;;;2.35;1.15;;;;;;;14.85;75.22;101351.19;4993844;28;20109;-47
2023/06/14 04:57:55;;;;;;;1.58;1.02;;;;;;;14.84;75.65;101354.09;4996833;28;20030;-43
2023/06/14 05:00:23;;;;;;;1.08;0.93;;;;;;;14.90;75.25;101375.59;4996913;28;20027;-42
2023/06/14 05:02:51;;;;;;;2.60;1.10;;;;;;;14.84;75.77;101357.63;4996918;28;20022;-43
2023/06/14 05:05:17;;;;;;;1.30;1.05;;;;;;;14.84;75.28;101359.50;4996934;28;20034;-42
2023/06/14 05:07:43;;;;;;;1.40;1.08;;;;;;;14.79;75.59;101368.25;4997197;28;20605;-42
2023/06/14 05:10:10;;;;;;;1.38;0.88;;;;;;;14.85;75.38;101361.97;4996796;28;20029;-42
2023/06/14 05:12:36;;;;;;;2.35;1.20;;;;;;;14.87;74.95;101357.16;4996890;28;20375;-43
2023/06/14 05:15:03;;;;;;;1.75;0.98;;;;;;;14.76;75.49;101366.78;4996422;28;20507;-46
2023/06/14 05:17:29;;;;;;;2.63;1.20;;;;;;;14.90;75.10;101362.13;4996690;28;20165;-44
2023/06/14 05:19:58;;;;;;;3.35;1.60;;;;;;;14.95;75.04;101370.38;4996678;28;20022;-43
2023/06/14 05:22:25;;;;;;;2.53;1.33;;;;;;;14.91;75.36;101363.78;4997049;28;20503;-43
2023/06/14 05:24:51;;;;;;;3.33;1.42;;;;;;;14.96;75.10;101366.63;4996647;28;20034;-44
2023/06/14 05:27:17;;;;;;;1.55;0.90;;;;;;;14.82;75.26;101367.78;4996482;28;20030;-43
2023/06/14 05:29:44;;;;;;;1.83;1.17;;;;;;;14.74;75.71;101362.69;4996530;28;20379;-43
2023/06/14 05:32:10;;;;;;;2.45;1.10;;;;;;;14.83;75.40;101347.06;4996381;28;20022;-43
2023/06/14 05:34:36;;;;;;;2.42;1.23;;;;;;;14.84;75.56;101344.16;4996478;28;20428;-42
2023/06/14 05:37:03;;;;;;;2.13;1.25;;;;;;;14.83;75.91;101350.59;4996300;28;20027;-42
2023/06/14 05:39:30;;;;;;;1.70;1.40;;;;;;;14.52;77.07;101346.91;4996171;28;20128;-44
2023/06/14 05:41:56;;;;;;;1.85;1.05;;;;;;;14.54;77.06;101338.59;4996158;28;20547;-44
2023/06/14 05:44:22;;;;;;;2.55;1.73;;;;;;;14.52;77.34;101335.31;4996489;28;20033;-43
2023/06/14 05:46:48;;;;;;;2.13;1.25;;;;;;;14.57;77.43;101331.97;5011385;28;20412;-42
2023/06/14 05:49:15;;;;;;;3.03;1.60;;;;;;;14.50;77.42;101327.47;4996133;28;20089;-43
2023/06/14 05:51:41;;;;;;;2.38;1.35;;;;;;;14.55;77.19;101321.41;4996415;28;20078;-45
2023/06/14 05:54:07;;;;;;;2.03;1.17;;;;;;;14.50;77.58;101340.91;4995996;28;20037;-43
2023/06/14 05:56:34;;;;;;;2.47;1.20;;;;;;;14.45;77.49;101340.72;4995979;28;20034;-43
2023/06/14 05:59:00;;;;;;;1.67;1.27;;;;;;;14.47;77.14;101335.97;4995970;28;20026;-44
2023/06/14 06:01:27;;;;;;;1.10;1.00;;;;;;;14.40;77.25;101327.09;4996144;28;20089;-43
2023/06/14 06:03:54;;;;;;;3.08;1.52;;;;;;;14.35;77.53;101329.59;4995880;28;20050;-43
2023/06/14 06:06:20;;;;;;;1.42;1.00;;;;;;;14.33;77.95;101333.56;4995330;28;20450;-44
2023/06/14 06:08:46;;;;;;;2.03;1.15;;;;;;;14.20;78.46;101334.47;4995872;28;20348;-43
2023/06/14 06:11:12;;;;;;;2.85;1.40;;;;;;;14.14;78.15;101330.78;4995987;28;20030;-45
2023/06/14 06:13:40;;;;;;;3.88;1.63;;;;;;;14.14;78.20;101333.47;4995703;28;20523;-43
2023/06/14 06:16:06;;;;;;;1.90;0.93;;;;;;;14.14;77.91;101332.66;4996250;28;20042;-41
2023/06/14 06:18:33;;;;;;;1.65;1.15;;;;;;;14.10;78.19;101326.06;4995647;28;20026;-44
2023/06/14 06:20:59;;;;;;;2.10;1.40;;;;;;;14.03;78.62;101322.59;4995585;28;20045;-43
2023/06/14 06:23:25;;;;;;;2.80;1.50;;;;;;;14.09;78.71;101324.41;4995462;28;20037;-43
2023/06/14 06:25:52;;;;;;;1.65;1.20;;;;;;;14.12;78.72;101324.81;4995462;28;20026;-44
2023/06/14 06:28:18;;;;;;;2.10;1.63;;;;;;;14.14;78.48;101320.03;4995421;28;20038;-43
2023/06/14 06:30:44;;;;;;;3.55;1.20;;;;;;;14.26;78.16;101317.44;4995770;28;20022;-42
2023/06/14 06:33:14;;;;;;;1.77;1.60;;;;;;;14.21;78.26;101319.97;4995362;28;20109;-43
2023/06/14 06:35:40;;;;;;;2.50;1.30;;;;;;;14.21;78.40;101318.13;4995285;28;20026;-43
2023/06/14 06:38:07;;;;;;;2.55;1.40;;;;;;;14.07;78.81;101313.03;5010101;28;20023;-43
2023/06/14 06:40:33;;;;;;;2.13;1.38;;;;;;;14.15;78.71;101313.59;4994999;28;20053;-43
2023/06/14 06:43:00;;;;;;;2.15;1.65;;;;;;;14.16;78.70;101323.34;4995305;28;20409;-43
2023/06/14 06:45:26;;;;;;;3.90;1.58;;;;;;;14.19;78.61;101325.56;4995062;28;20033;-43
2023/06/14 06:47:52;;;;;;;3.45;1.45;;;;;;;14.14;79.14;101325.41;4995366;28;20031;-43
2023/06/14 06:50:19;;;;;;;3.05;1.50;;;;;;;14.06;79.55;101332.94;4995382;28;20026;-43
2023/06/14 06:52:45;;;;;;;1.95;1.50;;;;;;;14.05;79.42;101358.19;4995248;28;20121;-43
2023/06/14 06:55:12;;;;;;;3.17;1.58;;;;;;;14.18;79.16;101350.84;4994843;28;20026;-43
2023/06/14 06:57:39;;;;;;;3.35;1.50;;;;;;;14.11;79.57;101343.88;4994814;28;20042;-43
2023/06/14 07:00:09;;;;;;;1.67;1.25;;;;;;;14.14;79.65;101333.47;4994776;28;20114;-42
2023/06/14 07:02:36;;;;;;;2.78;1.42;;;;;;;14.26;79.19;101341.69;4995262;28;20050;-43
2023/06/14 07:05:02;;;;;;;3.13;2.03;;;;;;;14.23;79.13;101345.66;5009783;28;20471;-43
2023/06/14 07:07:29;;;;;;;3.50;1.88;;;;;;;14.27;79.14;101335.28;4994601;28;20038;-43
2023/06/14 07:09:57;;;;;;;2.85;1.55;;;;;;;14.29;79.05;101330.50;4994657;28;20037;-45
2023/06/14 07:12:23;;;;;;;2.28;1.67;;;;;;;14.30;78.89;101334.81;4994555;28;20034;-43
2023/06/14 07:14:50;;;;;;;2.38;1.40;;;;;;;14.53;77.79;101318.09;4994456;28;20029;-43
2023/06/14 07:17:16;;;;;;;1.50;1.35;;;;;;;14.58;77.78;101306.66;4994651;28;20030;-43
2023/06/14 07:19:42;;;;;;;3.13;1.70;;;;;;;14.47;77.75;101306.34;4994341;28;20498;-43
2023/06/14 07:22:08;;;;;;;2.42;1.48;;;;;;;14.37;78.32;101305.16;4995200;28;20058;-43
2023/06/14 07:24:36;;;;;;;3.42;1.55;;;;;;;14.45;77.92;101308.41;4995067;28;20031;-43
2023/06/14 07:27:04;;;;;;;2.03;1.60;;;;;;;14.32;78.62;101303.09;4995197;28;20052;-45
2023/06/14 07:29:30;;;;;;;1.75;1.20;;;;;;;14.39;78.41;101295.81;4994428;28;20022;-43
2023/06/14 07:31:56;;;;;;;2.30;1.35;;;;;;;14.36;78.37;101281.97;4994200;28;20033;-43
2023/06/14 07:34:22;;;;;;;3.30;1.55;;;;;;;14.41;78.23;101282.13;4994192;28;20496;-43
2023/06/14 07:36:49;;;;;;;2.25;1.80;;;;;;;14.30;78.30;101278.28;4994613;28;20026;-43
2023/06/14 07:39:15;;;;;;;2.28;1.75;;;;;;;14.27;78.54;101292.19;4994054;28;20038;-43
2023/06/14 07:41:41;;;;;;;2.60;1.58;;;;;;;14.49;77.54;101282.72;4994269;28;20022;-44
2023/06/14 07:44:07;;;;;;;2.45;1.65;;;;;;;14.52;77.58;101282.25;4994015;28;20038;-43
2023/06/14 07:46:34;;;;;;;3.92;1.38;;;;;;;14.34;78.70;101274.09;4994217;28;20427;-45
2023/06/14 07:49:00;;;;;;;2.28;1.70;;;;;;;14.30;78.52;101283.66;4994044;28;20507;-43
2023/06/14 07:51:27;;;;;;;5.95;1.90;;;;;;;14.29;78.63;101298.19;4993947;28;20031;-43
2023/06/14 07:53:53;;;;;;;3.22;1.70;;;;;;;14.31;78.60;101297.94;4993889;28;20018;-43
2023/06/14 07:56:19;;;;;;;2.67;1.63;;;;;;;14.35;78.38;101309.94;4994079;28;20471;-43
2023/06/14 07:58:45;;;;;;;2.78;1.60;;;;;;;14.36;78.30;101316.97;4993977;28;20034;-43
2023/06/14 08:01:12;;;;;;;2.78;1.83;;;;;;;14.35;78.32;101321.53;4993763;28;20088;-42
2023/06/14 08:03:38;;;;;;;6.47;2.25;;;;;;;14.47;77.91;101316.28;4993610;28;20026;-43
2023/06/14 08:06:04;;;;;;;5.32;1.80;;;;;;;14.51;77.87;101318.31;4993655;28;20042;-42
2023/06/14 08:08:31;;;;;;;2.90;2.10;;;;;;;14.45;77.99;101324.56;4993637;28;20022;-44
2023/06/14 08:10:57;;;;;;;2.95;1.63;;;;;;;14.44;78.04;101314.84;5008631;28;20030;-42
2023/06/14 08:13:23;;;;;;;2.72;1.40;;;;;;;14.70;76.54;101310.28;4993770;28;20033;-43
2023/06/14 08:15:50;;;;;;;3.58;1.75;;;;;;;14.68;76.45;101312.38;4993458;28;20027;-42
2023/06/14 08:18:16;;;;;;;5.03;1.80;;;;;;;14.66;76.55;101306.41;4993436;28;20042;-43
2023/06/14 08:20:43;;;;;;;2.60;1.58;;;;;;;14.63;76.55;101296.88;4993605;28;20134;-43
2023/06/14 08:23:10;;;;;;;3.50;1.52;;;;;;;14.61;76.38;101292.75;4993607;28;20022;-42
2023/06/14 08:25:36;;;;;;;5.82;1.75;;;;;;;14.67;76.18;101287.31;4993494;28;20030;-42
2023/06/14 08:28:02;;;;;;;3.97;1.80;;;;;;;14.44;77.43;101279.00;4993358;28;20034;-44
2023/06/14 08:30:28;;;;;;;1.63;1.30;;;;;;;14.40;77.82;101275.91;4996588;28;20034;-43
2023/06/14 08:32:55;;;;;;;1.70;1.42;;;;;;;14.46;77.85;101280.41;4997494;28;20030;-43
2023/06/14 08:35:22;;;;;;;3.00;1.90;;;;;;;14.43;77.82;101288.94;4997907;28;20035;-44
2023/06/14 08:37:49;;;;;;;2.42;1.80;;;;;;;14.42;77.76;101287.28;4997653;28;20072;-42
2023/06/14 08:40:23;;;;;;;3.17;1.85;;;;;;;14.44;77.32;101292.47;4997415;28;20073;-42
2023/06/14 08:42:55;;;;;;;2.22;1.58;;;;;;;14.45;77.75;101277.94;4997196;28;20026;-43
2023/06/14 08:45:22;;;;;;;3.55;1.52;;;;;;;14.42;77.55;101281.06;4997329;28;20022;-42
2023/06/14 08:47:51;;;;;;;2.53;1.85;;;;;;;14.29;77.55;101290.09;4997302;28;20498;-43
2023/06/14 08:50:31;;;;;;;2.33;1.40;;;;;;;14.43;77.29;101290.78;4997050;28;20124;-42
2023/06/14 08:53:02;;;;;;;4.20;1.90;;;;;;;14.52;76.58;101290.34;4997151;28;20034;-42
2023/06/14 08:55:30;;;;;;;1.77;1.23;;;;;;;14.52;76.76;101287.66;4997127;28;20046;-42
2023/06/14 08:57:57;;;;;;;2.22;1.50;;;;;;;14.41;77.13;101280.25;4997005;28;20444;-44
2023/06/14 09:00:25;;;;;;;2.10;1.38;;;;;;;14.44;76.86;101279.81;4997039;28;20029;-42
2023/06/14 09:02:57;;;;;;;2.28;1.60;;;;;;;14.42;77.26;101275.69;4996944;28;20022;-42
2023/06/14 09:05:27;;;;;;;2.65;1.40;;;;;;;14.55;76.58;101275.63;4996898;28;20470;-41
2023/06/14 09:08:00;;;;;;;2.38;1.50;;;;;;;14.55;76.55;101270.22;4996909;28;20030;-43
2023/06/14 09:10:28;;;;;;;2.45;1.50;;;;;;;14.57;76.21;101278.09;4996883;28;20395;-42
2023/06/14 09:12:55;;;;;;;3.22;1.77;;;;;;;14.50;76.98;101270.06;4996838;28;20101;-43
2023/06/14 09:15:21;;;;;;;1.98;1.42;;;;;;;14.40;77.16;101262.44;4996616;28;20018;-42
2023/06/14 09:17:48;;;;;;;2.42;1.70;;;;;;;14.34;77.70;101259.81;4996696;28;20167;-42
2023/06/14 09:20:18;;;;;;;1.85;1.40;;;;;;;14.38;77.40;101264.56;4997077;28;20046;-43
2023/06/14 09:22:44;;;;;;;2.25;1.73;;;;;;;14.44;76.92;101260.97;4996602;28;20084;-42
2023/06/14 09:25:12;;;;;;;3.63;1.63;;;;;;;14.43;76.71;101261.16;4996893;28;20030;-43
2023/06/14 09:27:40;;;;;;;2.55;1.73;;;;;;;14.34;77.86;101252.56;4996791;28;20376;-42
2023/06/14 09:30:09;;;;;;;2.47;1.70;;;;;;;14.32;78.19;101251.13;4996313;28;20022;-42
2023/06/14 09:32:41;;;;;;;3.28;1.73;;;;;;;14.27;78.46;101252.63;4996491;28;20112;-43
2023/06/14 09:35:09;;;;;;;5.13;1.83;;;;;;;14.10;79.34;101245.28;4996268;28;20030;-42
2023/06/14 09:37:38;;;;;;;2.30;2.08;;;;;;;14.13;79.33;101247.56;4996261;28;20065;-42
2023/06/14 09:40:05;;;;;;;4.20;1.83;;;;;;;14.20;79.04;101240.25;4996133;28;20050;-43
2023/06/14 09:42:31;;;;;;;1.90;1.70;;;;;;;14.13;78.67;101250.25;4995512;28;20030;-43
2023/06/14 09:44:58;;;;;;;1.85;1.23;;;;;;;14.07;78.27;101248.44;4996266;28;20023;-43
2023/06/14 09:47:25;;;;;;;3.22;1.50;;;;;;;14.07;78.54;101251.97;4996745;28;20073;-42
2023/06/14 09:49:54;;;;;;;2.80;1.48;;;;;;;14.07;78.96;101257.34;4996969;28;20463;-42
2023/06/14 09:52:26;;;;;;;2.00;1.80;;;;;;;14.24;78.63;101265.69;4996022;28;20026;-43
2023/06/14 09:54:55;;;;;;;2.97;1.65;;;;;;;14.18;78.70;101266.56;4996096;28;20407;-42
2023/06/14 09:57:26;;;;;;;2.30;1.70;;;;;;;14.13;78.72;101256.47;4996025;28;20109;-42
2023/06/14 10:00:00;;;;;;;2.28;1.23;;;;;;;14.29;77.85;101257.78;4996495;28;20026;-43
2023/06/14 10:02:31;;;;;;;2.42;1.27;;;;;;;14.29;77.85;101249.72;4996377;28;20057;-44
2023/06/14 10:05:06;;;;;;;2.85;1.40;;;;;;;14.22;78.29;101255.16;4996191;28;20057;-42
2023/06/14 10:07:42;;;;;;;2.10;1.50;;;;;;;14.13;78.74;101251.06;4995764;28;20035;-42
2023/06/14 10:10:08;;;;;;;;;;;;;;;14.18;78.54;101256.63;4996582;28;20022;-42
2023/06/14 10:12:34;;;;;;;2.67;1.58;;;;;;;14.11;78.63;101255.88;4995625;28;20278;-44
2023/06/14 10:15:02;;;;;;;3.38;1.42;;;;;;;14.09;78.71;101263.31;4995672;28;20053;-42
2023/06/14 10:17:59;;;;;;;3.83;1.45;;;;;;;14.11;79.00;101271.19;4995703;28;20467;-44
2023/06/14 10:20:37;;;;;;;1.73;1.50;;;;;;;14.27;78.40;101265.28;4995622;28;20121;-42
2023/06/14 10:23:17;;;;;;;6.93;1.58;;;;;;;14.35;78.23;101258.78;4995506;28;20027;-42
2023/06/14 10:25:44;;;;;;;3.13;1.92;;;;;;;14.32;78.56;101257.31;4995418;28;20045;-42
2023/06/14 10:28:30;;;;;;;2.80;1.70;;;;;;;14.30;79.36;101255.91;4995452;28;20058;-42
2023/06/14 10:31:08;;;;;;;3.65;1.77;;;;;;;14.19;79.63;101266.34;4995264;28;20110;-44
2023/06/14 10:33:55;;;;;;;3.03;1.70;;;;;;;14.08;80.41;101260.84;4995246;28;20034;-42
2023/06/14 10:36:34;;;;;;;2.30;1.73;;;;;;;14.22;79.74;101259.72;4994987;28;20039;-46
2023/06/14 10:39:19;;;;;;;4.55;2.17;;;;;;;14.19;80.19;101266.34;4995199;28;20031;-42
2023/06/14 10:41:57;;;;;;;3.58;1.85;;;;;;;13.97;80.58;101268.59;4995234;28;20113;-43
2023/06/14 10:44:23;;;;;;;2.80;1.50;;;;;;;14.14;80.13;101258.09;4995055;28;20038;-42
2023/06/14 10:46:52;;;;;;;2.95;1.60;;;;;;;14.06;80.05;101249.50;4995032;28;20034;-43
2023/06/14 10:49:19;;;;;;;3.75;1.95;;;;;;;14.06;80.65;101253.00;4995364;28;20399;-45
2023/06/14 10:51:50;;;;;;;2.58;1.90;;;;;;;14.03;80.89;101252.59;4994913;28;20133;-46
2023/06/14 10:54:17;;;;;;;2.40;2.20;;;;;;;14.06;80.89;101249.50;4994923;28;20107;-42
2023/06/14 10:56:51;;;;;;;2.67;1.80;;;;;;;14.02;81.11;101253.66;4994632;28;20026;-44
2023/06/14 10:59:19;;;;;;;5.40;1.83;;;;;;;13.84;81.60;101244.47;4995057;28;20037;-42
2023/06/14 11:01:59;;;;;;;3.13;1.90;;;;;;;14.02;81.08;101241.03;4994833;28;20037;-42
2023/06/14 11:04:47;;;;;;;3.28;2.13;;;;;;;13.73;82.12;101235.22;4994763;28;20031;-42
2023/06/14 11:07:25;;;;;;;3.85;1.98;;;;;;;13.80;81.50;101239.72;4994687;28;20022;-43
2023/06/14 11:10:34;;;;;;;2.95;1.77;;;;;;;13.98;81.26;101234.41;4994556;28;20113;-42
2023/06/14 11:13:00;;;;;;;2.90;2.30;;;;;;;13.84;82.19;101222.94;4994974;28;20034;-42
2023/06/14 11:15:31;;;;;;;3.15;2.08;;;;;;;13.66;83.82;101225.56;4994705;28;20029;-43
2023/06/14 11:18:00;;;;;;;2.95;1.90;;;;;;;13.67;83.68;101224.50;4994482;28;20053;-45
2023/06/14 11:20:27;;;;;;;3.80;2.15;;;;;;;13.50;84.24;101224.19;4994436;28;20034;-44
2023/06/14 11:22:54;;;;;;;3.35;2.10;;;;;;;13.45;84.73;101224.84;4994441;28;20030;-45
2023/06/14 11:25:21;;;;;;;3.25;2.20;;;;;;;13.46;85.26;101237.25;4994382;28;20430;-45
2023/06/14 11:27:50;;;;;;;4.25;2.30;;;;;;;13.34;86.05;101222.84;4994194;28;20030;-43
2023/06/14 11:30:17;;;;;;;3.05;1.92;;;;;;;13.48;85.62;101216.31;5009298;28;20026;-43